sensor_id;sensor_type;location;lat;lon;timestamp;temperature;humidity
7472;DHT22;3777;48.722;8.110;2023-06-14T00:00:16;17.80;99.90
7472;DHT22;3777;48.722;8.110;2023-06-14T00:02:43;17.80;99.90
7472;DHT22;3777;48.722;8.110;2023-06-14T00:05:10;17.80;99.90
7472;DHT22;3777;48.722;8.110;2023-06-14T00:07:40;17.80;99.90
7472;DHT22;3777;48.722;8.110;2023-06-14T00:10:09;17.80;99.90
7472;DHT22;3777;48.722;8.110;2023-06-14T00:12:36;17.60;99.90
7472;DHT22;3777;48.722;8.110;2023-06-14T00:15:06;17.40;99.90
7472;DHT22;3777;48.722;8.110;2023-06-14T00:17:35;17.10;99.90
7472;DHT22;3777;48.722;8.110;2023-06-14T00:20:03;16.90;99.90
7472;DHT22;3777;48.722;8.110;2023-06-14T00:22:33;16.80;99.90
7472;DHT22;3777;48.722;8.110;2023-06-14T00:25:02;17.00;98.30
7472;DHT22;3777;48.722;8.110;2023-06-14T00:27:29;17.10;97.40
7472;DHT22;3777;48.722;8.110;2023-06-14T00:29:56;17.00;98.90
7472;DHT22;3777;48.722;8.110;2023-06-14T00:32:25;16.90;99.90
7472;DHT22;3777;48.722;8.110;2023-06-14T00:34:53;16.80;99.00
7472;DHT22;3777;48.722;8.110;2023-06-14T00:37:20;16.60;99.40
7472;DHT22;3777;48.722;8.110;2023-06-14T00:39:47;16.60;99.90
7472;DHT22;3777;48.722;8.110;2023-06-14T00:42:23;16.60;99.90
7472;DHT22;3777;48.722;8.110;2023-06-14T00:44:51;16.50;99.90
7472;DHT22;3777;48.722;8.110;2023-06-14T00:47:18;16.40;99.90
7472;DHT22;3777;48.722;8.110;2023-06-14T00:49:48;16.30;99.90
7472;DHT22;3777;48.722;8.110;2023-06-14T00:52:15;16.30;99.90
7472;DHT22;3777;48.722;8.110;2023-06-14T00:54:42;16.20;99.90
7472;DHT22;3777;48.722;8.110;2023-06-14T00:57:10;16.20;99.90
7472;DHT22;3777;48.722;8.110;2023-06-14T00:59:42;16.10;99.90
7472;DHT22;3777;48.722;8.110;2023-06-14T01:02:09;16.10;99.90
7472;DHT22;3777;48.722;8.110;2023-06-14T01:04:36;16.00;99.90
7472;DHT22;3777;48.722;8.110;2023-06-14T01:07:09;16.00;99.90
7472;DHT22;3777;48.722;8.110;2023-06-14T01:09:50;15.90;99.90
7472;DHT22;3777;48.722;8.110;2023-06-14T01:12:24;15.80;99.90
7472;DHT22;3777;48.722;8.110;2023-06-14T01:14:57;15.80;99.90
7472;DHT22;3777;48.722;8.110;2023-06-14T01:17:26;15.80;99.90
7472;DHT22;3777;48.722;8.110;2023-06-14T01:19:57;15.70;99.90
7472;DHT22;3777;48.722;8.110;2023-06-14T01:22:27;15.60;99.90
7472;DHT22;3777;48.722;8.110;2023-06-14T01:24:55;15.60;99.90
7472;DHT22;3777;48.722;8.110;2023-06-14T01:27:24;15.60;99.90
7472;DHT22;3777;48.722;8.110;2023-06-14T01:29:55;15.60;99.90
7472;DHT22;3777;48.722;8.110;2023-06-14T01:32:23;15.80;99.90
7472;DHT22;3777;48.722;8.110;2023-06-14T01:34:51;15.70;99.90
7472;DHT22;3777;48.722;8.110;2023-06-14T01:37:19;15.70;99.90
7472;DHT22;3777;48.722;8.110;2023-06-14T01:39:47;15.80;99.90
7472;DHT22;3777;48.722;8.110;2023-06-14T01:42:16;15.60;99.90
7472;DHT22;3777;48.722;8.110;2023-06-14T01:44:44;15.50;99.90
7472;DHT22;3777;48.722;8.110;2023-06-14T01:47:12;15.50;99.90
7472;DHT22;3777;48.722;8.110;2023-06-14T01:49:39;15.60;99.90
7472;DHT22;3777;48.722;8.110;2023-06-14T01:52:07;15.70;99.90
7472;DHT22;3777;48.722;8.110;2023-06-14T01:54:35;15.60;99.90
7472;DHT22;3777;48.722;8.110;2023-06-14T01:57:07;15.40;99.90
7472;DHT22;3777;48.722;8.110;2023-06-14T01:59:35;15.20;99.90
7472;DHT22;3777;48.722;8.110;2023-06-14T02:02:03;15.20;99.90
7472;DHT22;3777;48.722;8.110;2023-06-14T02:04:30;15.00;99.90
7472;DHT22;3777;48.722;8.110;2023-06-14T02:06:57;15.00;99.90
7472;DHT22;3777;48.722;8.110;2023-06-14T02:09:24;15.00;99.90
7472;DHT22;3777;48.722;8.110;2023-06-14T02:11:54;15.00;99.90
7472;DHT22;3777;48.722;8.110;2023-06-14T02:14:21;15.00;99.90
7472;DHT22;3777;48.722;8.110;2023-06-14T02:16:50;14.90;99.90
7472;DHT22;3777;48.722;8.110;2023-06-14T02:19:17;14.80;99.90
7472;DHT22;3777;48.722;8.110;2023-06-14T02:21:44;14.70;99.90
7472;DHT22;3777;48.722;8.110;2023-06-14T02:24:11;14.70;99.90
7472;DHT22;3777;48.722;8.110;2023-06-14T02:26:39;14.90;99.90
7472;DHT22;3777;48.722;8.110;2023-06-14T02:29:07;15.00;99.90
7472;DHT22;3777;48.722;8.110;2023-06-14T02:31:35;15.00;99.90
7472;DHT22;3777;48.722;8.110;2023-06-14T02:34:03;15.00;99.90
7472;DHT22;3777;48.722;8.110;2023-06-14T02:36:30;15.00;99.90
7472;DHT22;3777;48.722;8.110;2023-06-14T02:38:57;15.10;99.90
7472;DHT22;3777;48.722;8.110;2023-06-14T02:41:24;15.20;99.90
7472;DHT22;3777;48.722;8.110;2023-06-14T02:43:52;15.20;99.90
7472;DHT22;3777;48.722;8.110;2023-06-14T02:46:19;15.10;99.90
7472;DHT22;3777;48.722;8.110;2023-06-14T02:48:46;15.10;99.90
7472;DHT22;3777;48.722;8.110;2023-06-14T02:51:14;15.20;99.90
7472;DHT22;3777;48.722;8.110;2023-06-14T02:53:41;15.20;99.90
7472;DHT22;3777;48.722;8.110;2023-06-14T02:56:09;15.30;99.90
7472;DHT22;3777;48.722;8.110;2023-06-14T02:58:37;15.30;99.90
7472;DHT22;3777;48.722;8.110;2023-06-14T03:01:05;15.30;99.90
7472;DHT22;3777;48.722;8.110;2023-06-14T03:03:33;15.30;99.90
7472;DHT22;3777;48.722;8.110;2023-06-14T03:06:00;15.30;99.90
7472;DHT22;3777;48.722;8.110;2023-06-14T03:08:32;15.30;99.90
7472;DHT22;3777;48.722;8.110;2023-06-14T03:11:04;15.30;99.90
7472;DHT22;3777;48.722;8.110;2023-06-14T03:13:31;15.30;99.90
7472;DHT22;3777;48.722;8.110;2023-06-14T03:15:59;15.30;99.90
7472;DHT22;3777;48.722;8.110;2023-06-14T03:18:28;15.30;99.90
7472;DHT22;3777;48.722;8.110;2023-06-14T03:20:56;15.30;99.90
7472;DHT22;3777;48.722;8.110;2023-06-14T03:23:24;15.20;99.90
7472;DHT22;3777;48.722;8.110;2023-06-14T03:25:52;15.30;99.90
7472;DHT22;3777;48.722;8.110;2023-06-14T03:28:19;15.30;99.90
7472;DHT22;3777;48.722;8.110;2023-06-14T03:30:46;15.30;99.90
7472;DHT22;3777;48.722;8.110;2023-06-14T03:33:13;15.40;99.90
7472;DHT22;3777;48.722;8.110;2023-06-14T03:35:41;15.40;99.90
7472;DHT22;3777;48.722;8.110;2023-06-14T03:38:08;15.50;99.90
7472;DHT22;3777;48.722;8.110;2023-06-14T03:40:35;15.50;99.90
7472;DHT22;3777;48.722;8.110;2023-06-14T03:43:03;15.60;99.90
7472;DHT22;3777;48.722;8.110;2023-06-14T03:45:30;15.60;99.90
7472;DHT22;3777;48.722;8.110;2023-06-14T03:47:57;15.60;99.90
7472;DHT22;3777;48.722;8.110;2023-06-14T03:50:26;15.60;99.90
7472;DHT22;3777;48.722;8.110;2023-06-14T03:52:53;15.60;99.90
7472;DHT22;3777;48.722;8.110;2023-06-14T03:55:20;15.60;99.90
7472;DHT22;3777;48.722;8.110;2023-06-14T03:57:50;15.60;99.90
7472;DHT22;3777;48.722;8.110;2023-06-14T04:00:19;15.60;99.90
7472;DHT22;3777;48.722;8.110;2023-06-14T04:02:46;15.70;99.90
7472;DHT22;3777;48.722;8.110;2023-06-14T04:05:13;15.70;99.90
7472;DHT22;3777;48.722;8.110;2023-06-14T04:07:42;15.90;99.90
7472;DHT22;3777;48.722;8.110;2023-06-14T04:10:11;16.00;99.90
7472;DHT22;3777;48.722;8.110;2023-06-14T04:12:38;16.10;99.90
7472;DHT22;3777;48.722;8.110;2023-06-14T04:15:07;16.20;99.90
7472;DHT22;3777;48.722;8.110;2023-06-14T04:17:36;16.40;99.90
7472;DHT22;3777;48.722;8.110;2023-06-14T04:20:04;16.50;99.90
7472;DHT22;3777;48.722;8.110;2023-06-14T04:22:35;16.70;99.90
7472;DHT22;3777;48.722;8.110;2023-06-14T04:25:02;16.90;99.90
7472;DHT22;3777;48.722;8.110;2023-06-14T04:27:31;17.10;99.90
7472;DHT22;3777;48.722;8.110;2023-06-14T04:29:59;17.30;99.90
7472;DHT22;3777;48.722;8.110;2023-06-14T04:32:29;17.40;99.90
7472;DHT22;3777;48.722;8.110;2023-06-14T04:35:00;17.50;99.90
7472;DHT22;3777;48.722;8.110;2023-06-14T04:37:29;17.70;99.90
7472;DHT22;3777;48.722;8.110;2023-06-14T04:39:56;17.80;99.90
7472;DHT22;3777;48.722;8.110;2023-06-14T04:42:23;17.90;99.90
7472;DHT22;3777;48.722;8.110;2023-06-14T04:44:57;18.00;99.90
7472;DHT22;3777;48.722;8.110;2023-06-14T04:47:24;18.10;99.90
7472;DHT22;3777;48.722;8.110;2023-06-14T04:49:56;18.10;99.90
7472;DHT22;3777;48.722;8.110;2023-06-14T04:52:24;18.20;99.80
7472;DHT22;3777;48.722;8.110;2023-06-14T04:54:52;18.30;99.90
7472;DHT22;3777;48.722;8.110;2023-06-14T04:57:19;18.40;98.90
7472;DHT22;3777;48.722;8.110;2023-06-14T04:59:48;18.60;99.70
7472;DHT22;3777;48.722;8.110;2023-06-14T05:02:21;18.80;98.80
7472;DHT22;3777;48.722;8.110;2023-06-14T05:04:48;18.80;98.00
7472;DHT22;3777;48.722;8.110;2023-06-14T05:07:15;18.70;98.00
7472;DHT22;3777;48.722;8.110;2023-06-14T05:09:44;18.60;97.80
7472;DHT22;3777;48.722;8.110;2023-06-14T05:12:11;18.60;97.60
7472;DHT22;3777;48.722;8.110;2023-06-14T05:14:39;18.70;97.70
7472;DHT22;3777;48.722;8.110;2023-06-14T05:17:08;18.70;97.20
7472;DHT22;3777;48.722;8.110;2023-06-14T05:19:35;18.80;97.40
7472;DHT22;3777;48.722;8.110;2023-06-14T05:22:03;18.90;96.50
7472;DHT22;3777;48.722;8.110;2023-06-14T05:24:30;19.10;96.00
7472;DHT22;3777;48.722;8.110;2023-06-14T05:26:59;19.10;95.80
7472;DHT22;3777;48.722;8.110;2023-06-14T05:29:26;19.30;94.90
7472;DHT22;3777;48.722;8.110;2023-06-14T05:31:53;19.60;94.10
7472;DHT22;3777;48.722;8.110;2023-06-14T05:34:19;20.10;93.90
7472;DHT22;3777;48.722;8.110;2023-06-14T05:36:46;20.70;92.70
7472;DHT22;3777;48.722;8.110;2023-06-14T05:39:13;21.00;91.40
7472;DHT22;3777;48.722;8.110;2023-06-14T05:41:40;21.40;90.80
7472;DHT22;3777;48.722;8.110;2023-06-14T05:44:08;21.80;89.60
7472;DHT22;3777;48.722;8.110;2023-06-14T05:46:35;22.10;88.80
7472;DHT22;3777;48.722;8.110;2023-06-14T05:49:02;22.40;87.00
7472;DHT22;3777;48.722;8.110;2023-06-14T05:51:29;22.70;86.90
7472;DHT22;3777;48.722;8.110;2023-06-14T05:53:56;22.90;84.70
7472;DHT22;3777;48.722;8.110;2023-06-14T05:56:23;23.00;83.30
7472;DHT22;3777;48.722;8.110;2023-06-14T05:58:51;23.10;82.20
7472;DHT22;3777;48.722;8.110;2023-06-14T06:01:19;22.90;82.10
7472;DHT22;3777;48.722;8.110;2023-06-14T06:03:46;23.20;81.90
7472;DHT22;3777;48.722;8.110;2023-06-14T06:06:13;23.40;79.20
7472;DHT22;3777;48.722;8.110;2023-06-14T06:08:40;23.20;79.30
7472;DHT22;3777;48.722;8.110;2023-06-14T06:11:08;23.40;78.90
7472;DHT22;3777;48.722;8.110;2023-06-14T06:13:35;23.70;77.70
7472;DHT22;3777;48.722;8.110;2023-06-14T06:16:02;24.00;76.40
7472;DHT22;3777;48.722;8.110;2023-06-14T06:18:30;24.10;76.10
7472;DHT22;3777;48.722;8.110;2023-06-14T06:20:57;24.40;73.40
7472;DHT22;3777;48.722;8.110;2023-06-14T06:23:24;24.80;72.80
7472;DHT22;3777;48.722;8.110;2023-06-14T06:25:51;25.10;70.90
7472;DHT22;3777;48.722;8.110;2023-06-14T06:28:19;25.20;68.90
7472;DHT22;3777;48.722;8.110;2023-06-14T06:30:46;25.10;69.20
7472;DHT22;3777;48.722;8.110;2023-06-14T06:33:13;25.40;68.60
7472;DHT22;3777;48.722;8.110;2023-06-14T06:35:42;25.40;66.60
7472;DHT22;3777;48.722;8.110;2023-06-14T06:38:09;25.60;66.70
7472;DHT22;3777;48.722;8.110;2023-06-14T06:40:36;25.80;65.90
7472;DHT22;3777;48.722;8.110;2023-06-14T06:43:03;25.90;64.80
7472;DHT22;3777;48.722;8.110;2023-06-14T06:45:30;26.40;63.10
7472;DHT22;3777;48.722;8.110;2023-06-14T06:47:57;26.90;61.30
7472;DHT22;3777;48.722;8.110;2023-06-14T06:50:24;27.10;59.60
7472;DHT22;3777;48.722;8.110;2023-06-14T06:52:52;27.80;57.20
7472;DHT22;3777;48.722;8.110;2023-06-14T06:55:20;28.00;56.10
7472;DHT22;3777;48.722;8.110;2023-06-14T06:57:47;28.70;54.80
7472;DHT22;3777;48.722;8.110;2023-06-14T07:00:16;29.60;52.50
7472;DHT22;3777;48.722;8.110;2023-06-14T07:02:43;29.70;50.10
7472;DHT22;3777;48.722;8.110;2023-06-14T07:05:10;29.20;49.40
7472;DHT22;3777;48.722;8.110;2023-06-14T07:07:38;29.10;49.70
7472;DHT22;3777;48.722;8.110;2023-06-14T07:10:07;29.10;48.90
7472;DHT22;3777;48.722;8.110;2023-06-14T07:12:34;29.60;48.80
7472;DHT22;3777;48.722;8.110;2023-06-14T07:15:05;29.90;48.00
7472;DHT22;3777;48.722;8.110;2023-06-14T07:17:33;30.10;46.90
7472;DHT22;3777;48.722;8.110;2023-06-14T07:20:01;30.10;46.10
7472;DHT22;3777;48.722;8.110;2023-06-14T07:22:38;29.90;46.20
7472;DHT22;3777;48.722;8.110;2023-06-14T07:25:08;30.10;46.20
7472;DHT22;3777;48.722;8.110;2023-06-14T07:27:35;30.10;45.80
7472;DHT22;3777;48.722;8.110;2023-06-14T07:30:02;29.70;45.20
7472;DHT22;3777;48.722;8.110;2023-06-14T07:32:29;29.60;45.80
7472;DHT22;3777;48.722;8.110;2023-06-14T07:34:56;29.30;46.20
7472;DHT22;3777;48.722;8.110;2023-06-14T07:37:23;29.00;46.20
7472;DHT22;3777;48.722;8.110;2023-06-14T07:39:50;28.90;46.70
7472;DHT22;3777;48.722;8.110;2023-06-14T07:42:18;28.70;46.70
7472;DHT22;3777;48.722;8.110;2023-06-14T07:44:46;28.30;46.90
7472;DHT22;3777;48.722;8.110;2023-06-14T07:47:13;28.20;47.30
7472;DHT22;3777;48.722;8.110;2023-06-14T07:49:40;28.10;47.90
7472;DHT22;3777;48.722;8.110;2023-06-14T07:52:07;28.20;47.70
7472;DHT22;3777;48.722;8.110;2023-06-14T07:54:34;28.40;47.60
7472;DHT22;3777;48.722;8.110;2023-06-14T07:57:01;28.80;47.00
7472;DHT22;3777;48.722;8.110;2023-06-14T07:59:30;29.40;46.60
7472;DHT22;3777;48.722;8.110;2023-06-14T08:01:57;29.70;45.80
7472;DHT22;3777;48.722;8.110;2023-06-14T08:04:24;30.10;45.60
7472;DHT22;3777;48.722;8.110;2023-06-14T08:06:51;30.90;44.40
7472;DHT22;3777;48.722;8.110;2023-06-14T08:09:18;31.10;43.50
7472;DHT22;3777;48.722;8.110;2023-06-14T08:11:45;31.70;43.20
7472;DHT22;3777;48.722;8.110;2023-06-14T08:14:12;31.60;42.90
7472;DHT22;3777;48.722;8.110;2023-06-14T08:16:41;32.30;42.80
7472;DHT22;3777;48.722;8.110;2023-06-14T08:19:08;32.80;41.90
7472;DHT22;3777;48.722;8.110;2023-06-14T08:21:35;32.80;40.60
7472;DHT22;3777;48.722;8.110;2023-06-14T08:24:02;32.60;40.00
7472;DHT22;3777;48.722;8.110;2023-06-14T08:26:30;32.40;40.40
7472;DHT22;3777;48.722;8.110;2023-06-14T08:28:57;32.30;39.80
7472;DHT22;3777;48.722;8.110;2023-06-14T08:31:26;32.10;40.80
7472;DHT22;3777;48.722;8.110;2023-06-14T08:34:00;32.00;40.50
7472;DHT22;3777;48.722;8.110;2023-06-14T08:36:35;32.40;40.70
7472;DHT22;3777;48.722;8.110;2023-06-14T08:39:02;32.60;39.50
7472;DHT22;3777;48.722;8.110;2023-06-14T08:41:30;33.10;39.30
7472;DHT22;3777;48.722;8.110;2023-06-14T08:43:57;33.30;38.80
7472;DHT22;3777;48.722;8.110;2023-06-14T08:46:26;34.10;38.00
7472;DHT22;3777;48.722;8.110;2023-06-14T08:48:57;33.90;37.60
7472;DHT22;3777;48.722;8.110;2023-06-14T08:51:25;34.20;38.00
7472;DHT22;3777;48.722;8.110;2023-06-14T08:53:53;34.10;37.20
7472;DHT22;3777;48.722;8.110;2023-06-14T08:56:24;34.00;36.50
7472;DHT22;3777;48.722;8.110;2023-06-14T08:58:53;34.00;36.20
7472;DHT22;3777;48.722;8.110;2023-06-14T09:01:22;34.40;36.50
7472;DHT22;3777;48.722;8.110;2023-06-14T09:03:49;35.30;35.00
7472;DHT22;3777;48.722;8.110;2023-06-14T09:06:18;35.90;34.30
7472;DHT22;3777;48.722;8.110;2023-06-14T09:08:49;36.50;33.80
7472;DHT22;3777;48.722;8.110;2023-06-14T09:11:17;35.90;33.20
7472;DHT22;3777;48.722;8.110;2023-06-14T09:13:45;35.50;33.00
7472;DHT22;3777;48.722;8.110;2023-06-14T09:16:12;36.00;33.60
7472;DHT22;3777;48.722;8.110;2023-06-14T09:18:40;36.50;33.20
7472;DHT22;3777;48.722;8.110;2023-06-14T09:21:10;36.40;32.40
7472;DHT22;3777;48.722;8.110;2023-06-14T09:23:39;35.60;32.30
7472;DHT22;3777;48.722;8.110;2023-06-14T09:26:07;35.90;32.50
7472;DHT22;3777;48.722;8.110;2023-06-14T09:28:34;35.60;32.60
7472;DHT22;3777;48.722;8.110;2023-06-14T09:31:01;36.00;32.60
7472;DHT22;3777;48.722;8.110;2023-06-14T09:33:28;35.30;32.80
7472;DHT22;3777;48.722;8.110;2023-06-14T09:35:57;35.40;33.60
7472;DHT22;3777;48.722;8.110;2023-06-14T09:38:25;35.90;32.70
7472;DHT22;3777;48.722;8.110;2023-06-14T09:40:56;36.20;32.40
7472;DHT22;3777;48.722;8.110;2023-06-14T09:43:23;37.00;31.50
7472;DHT22;3777;48.722;8.110;2023-06-14T09:45:52;37.10;30.90
7472;DHT22;3777;48.722;8.110;2023-06-14T09:48:20;37.30;30.70
7472;DHT22;3777;48.722;8.110;2023-06-14T09:50:50;37.70;30.60
7472;DHT22;3777;48.722;8.110;2023-06-14T09:53:21;37.90;30.10
7472;DHT22;3777;48.722;8.110;2023-06-14T09:55:49;38.00;29.80
7472;DHT22;3777;48.722;8.110;2023-06-14T09:58:20;38.40;29.50
7472;DHT22;3777;48.722;8.110;2023-06-14T10:00:47;38.40;28.80
7472;DHT22;3777;48.722;8.110;2023-06-14T10:03:21;38.00;29.00
7472;DHT22;3777;48.722;8.110;2023-06-14T10:05:49;38.50;29.30
7472;DHT22;3777;48.722;8.110;2023-06-14T10:08:19;38.30;28.60
7472;DHT22;3777;48.722;8.110;2023-06-14T10:10:51;38.00;28.40
7472;DHT22;3777;48.722;8.110;2023-06-14T10:13:20;38.50;28.00
7472;DHT22;3777;48.722;8.110;2023-06-14T10:15:53;39.10;27.00
7472;DHT22;3777;48.722;8.110;2023-06-14T10:18:31;39.20;26.50
7472;DHT22;3777;48.722;8.110;2023-06-14T10:21:05;38.90;27.50
7472;DHT22;3777;48.722;8.110;2023-06-14T10:23:38;39.40;26.70
7472;DHT22;3777;48.722;8.110;2023-06-14T10:26:06;39.40;25.90
7472;DHT22;3777;48.722;8.110;2023-06-14T10:28:37;39.50;26.20
7472;DHT22;3777;48.722;8.110;2023-06-14T10:31:05;39.50;25.90
7472;DHT22;3777;48.722;8.110;2023-06-14T10:33:33;38.60;24.90
7472;DHT22;3777;48.722;8.110;2023-06-14T10:36:23;37.90;25.90
7472;DHT22;3777;48.722;8.110;2023-06-14T10:38:57;38.50;25.30
7472;DHT22;3777;48.722;8.110;2023-06-14T10:41:27;37.70;24.90
7472;DHT22;3777;48.722;8.110;2023-06-14T10:46:58;37.50;25.70
7472;DHT22;3777;48.722;8.110;2023-06-14T10:49:37;37.20;25.50
7472;DHT22;3777;48.722;8.110;2023-06-14T10:52:08;37.10;25.40
7472;DHT22;3777;48.722;8.110;2023-06-14T10:55:00;36.70;25.30
7472;DHT22;3777;48.722;8.110;2023-06-14T10:57:30;36.00;26.10
7472;DHT22;3777;48.722;8.110;2023-06-14T10:59:58;36.20;25.50
7472;DHT22;3777;48.722;8.110;2023-06-14T11:02:47;36.10;25.00
7472;DHT22;3777;48.722;8.110;2023-06-14T11:05:23;35.70;24.60
7472;DHT22;3777;48.722;8.110;2023-06-14T11:07:58;34.50;24.80
7472;DHT22;3777;48.722;8.110;2023-06-14T11:10:38;33.20;25.10
7472;DHT22;3777;48.722;8.110;2023-06-14T11:13:05;32.10;26.60
7472;DHT22;3777;48.722;8.110;2023-06-14T11:15:33;31.10;28.10
7472;DHT22;3777;48.722;8.110;2023-06-14T11:18:03;30.70;28.20
7472;DHT22;3777;48.722;8.110;2023-06-14T11:20:31;30.40;28.00
7472;DHT22;3777;48.722;8.110;2023-06-14T11:22:58;30.00;28.00
7472;DHT22;3777;48.722;8.110;2023-06-14T11:25:26;29.40;27.90
7472;DHT22;3777;48.722;8.110;2023-06-14T11:27:55;28.90;29.80
7472;DHT22;3777;48.722;8.110;2023-06-14T11:30:23;28.60;30.00
7472;DHT22;3777;48.722;8.110;2023-06-14T11:32:52;28.50;29.80
7472;DHT22;3777;48.722;8.110;2023-06-14T11:35:22;28.30;29.80
7472;DHT22;3777;48.722;8.110;2023-06-14T11:37:52;28.20;30.70
7472;DHT22;3777;48.722;8.110;2023-06-14T11:40:23;28.00;32.70
7472;DHT22;3777;48.722;8.110;2023-06-14T11:42:58;28.10;33.20
7472;DHT22;3777;48.722;8.110;2023-06-14T11:45:26;28.00;33.30
7472;DHT22;3777;48.722;8.110;2023-06-14T11:47:55;27.90;32.40
7472;DHT22;3777;48.722;8.110;2023-06-14T11:50:25;27.70;32.50
7472;DHT22;3777;48.722;8.110;2023-06-14T11:53:22;27.70;34.00
7472;DHT22;3777;48.722;8.110;2023-06-14T11:55:49;27.70;34.20
7472;DHT22;3777;48.722;8.110;2023-06-14T11:58:16;27.70;33.00
7472;DHT22;3777;48.722;8.110;2023-06-14T12:00:45;27.50;33.00
7472;DHT22;3777;48.722;8.110;2023-06-14T12:03:15;27.20;33.30
7472;DHT22;3777;48.722;8.110;2023-06-14T12:05:43;27.00;34.10
7472;DHT22;3777;48.722;8.110;2023-06-14T12:08:13;27.00;35.10
7472;DHT22;3777;48.722;8.110;2023-06-14T12:10:43;27.00;34.20
7472;DHT22;3777;48.722;8.110;2023-06-14T12:13:10;27.10;37.20
7472;DHT22;3777;48.722;8.110;2023-06-14T12:15:37;27.10;34.60
7472;DHT22;3777;48.722;8.110;2023-06-14T12:18:06;27.20;34.50
7472;DHT22;3777;48.722;8.110;2023-06-14T12:20:33;27.10;33.90
7472;DHT22;3777;48.722;8.110;2023-06-14T12:23:04;27.00;34.80
7472;DHT22;3777;48.722;8.110;2023-06-14T12:25:32;27.00;35.10
7472;DHT22;3777;48.722;8.110;2023-06-14T12:28:04;27.00;36.40
7472;DHT22;3777;48.722;8.110;2023-06-14T12:30:31;27.10;36.00
7472;DHT22;3777;48.722;8.110;2023-06-14T12:32:58;27.00;34.70
7472;DHT22;3777;48.722;8.110;2023-06-14T12:35:26;26.80;34.70
7472;DHT22;3777;48.722;8.110;2023-06-14T12:37:53;26.80;34.20
7472;DHT22;3777;48.722;8.110;2023-06-14T12:40:21;26.70;34.00
7472;DHT22;3777;48.722;8.110;2023-06-14T12:42:48;26.60;34.20
7472;DHT22;3777;48.722;8.110;2023-06-14T12:45:15;26.60;34.70
7472;DHT22;3777;48.722;8.110;2023-06-14T12:47:42;26.70;35.90
7472;DHT22;3777;48.722;8.110;2023-06-14T12:50:09;26.70;36.40
7472;DHT22;3777;48.722;8.110;2023-06-14T12:52:36;26.60;36.10
7472;DHT22;3777;48.722;8.110;2023-06-14T12:55:04;26.50;36.30
7472;DHT22;3777;48.722;8.110;2023-06-14T12:57:33;26.50;36.60
7472;DHT22;3777;48.722;8.110;2023-06-14T13:00:03;26.50;36.00
7472;DHT22;3777;48.722;8.110;2023-06-14T13:02:30;26.50;36.50
7472;DHT22;3777;48.722;8.110;2023-06-14T13:04:58;26.60;37.70
7472;DHT22;3777;48.722;8.110;2023-06-14T13:07:26;26.60;37.40
7472;DHT22;3777;48.722;8.110;2023-06-14T13:09:53;26.70;37.50
7472;DHT22;3777;48.722;8.110;2023-06-14T13:12:20;26.70;37.40
7472;DHT22;3777;48.722;8.110;2023-06-14T13:14:48;26.60;37.40
7472;DHT22;3777;48.722;8.110;2023-06-14T13:17:16;26.50;37.60
7472;DHT22;3777;48.722;8.110;2023-06-14T13:19:43;26.50;38.40
7472;DHT22;3777;48.722;8.110;2023-06-14T13:22:10;26.60;38.20
7472;DHT22;3777;48.722;8.110;2023-06-14T13:24:37;26.60;38.10
7472;DHT22;3777;48.722;8.110;2023-06-14T13:27:04;26.60;38.10
7472;DHT22;3777;48.722;8.110;2023-06-14T13:29:32;26.70;37.50
7472;DHT22;3777;48.722;8.110;2023-06-14T13:32:03;26.70;38.30
7472;DHT22;3777;48.722;8.110;2023-06-14T13:34:29;26.70;37.90
7472;DHT22;3777;48.722;8.110;2023-06-14T13:36:56;26.60;38.30
7472;DHT22;3777;48.722;8.110;2023-06-14T13:39:24;26.60;38.30
7472;DHT22;3777;48.722;8.110;2023-06-14T13:41:51;26.50;37.00
7472;DHT22;3777;48.722;8.110;2023-06-14T13:44:18;26.50;37.50
7472;DHT22;3777;48.722;8.110;2023-06-14T13:46:47;26.50;39.20
7472;DHT22;3777;48.722;8.110;2023-06-14T13:49:15;26.60;39.20
7472;DHT22;3777;48.722;8.110;2023-06-14T13:51:42;26.50;38.70
7472;DHT22;3777;48.722;8.110;2023-06-14T13:54:12;26.40;38.40
7472;DHT22;3777;48.722;8.110;2023-06-14T13:56:40;26.30;39.00
7472;DHT22;3777;48.722;8.110;2023-06-14T13:59:07;26.20;39.30
7472;DHT22;3777;48.722;8.110;2023-06-14T14:01:34;26.30;39.60
7472;DHT22;3777;48.722;8.110;2023-06-14T14:04:01;26.30;39.20
7472;DHT22;3777;48.722;8.110;2023-06-14T14:06:30;26.40;40.00
7472;DHT22;3777;48.722;8.110;2023-06-14T14:08:57;26.40;39.70
7472;DHT22;3777;48.722;8.110;2023-06-14T14:11:24;26.40;39.80
7472;DHT22;3777;48.722;8.110;2023-06-14T14:13:51;26.50;38.70
7472;DHT22;3777;48.722;8.110;2023-06-14T14:16:18;26.50;39.40
7472;DHT22;3777;48.722;8.110;2023-06-14T14:18:45;26.40;37.80
7472;DHT22;3777;48.722;8.110;2023-06-14T14:21:12;26.40;37.80
7472;DHT22;3777;48.722;8.110;2023-06-14T14:23:41;26.30;38.20
7472;DHT22;3777;48.722;8.110;2023-06-14T14:26:08;26.30;38.40
7472;DHT22;3777;48.722;8.110;2023-06-14T14:28:38;26.40;38.50
7472;DHT22;3777;48.722;8.110;2023-06-14T14:31:05;26.40;39.30
7472;DHT22;3777;48.722;8.110;2023-06-14T14:33:31;26.30;39.30
7472;DHT22;3777;48.722;8.110;2023-06-14T14:36:00;26.30;39.30
7472;DHT22;3777;48.722;8.110;2023-06-14T14:38:29;26.20;39.00
7472;DHT22;3777;48.722;8.110;2023-06-14T14:40:57;26.20;39.30
7472;DHT22;3777;48.722;8.110;2023-06-14T14:43:24;26.20;39.00
7472;DHT22;3777;48.722;8.110;2023-06-14T14:45:52;26.20;38.90
7472;DHT22;3777;48.722;8.110;2023-06-14T14:48:19;26.20;38.80
7472;DHT22;3777;48.722;8.110;2023-06-14T14:50:46;26.10;38.90
7472;DHT22;3777;48.722;8.110;2023-06-14T14:53:13;26.10;39.70
7472;DHT22;3777;48.722;8.110;2023-06-14T14:55:42;26.20;39.80
7472;DHT22;3777;48.722;8.110;2023-06-14T14:58:11;26.20;40.40
7472;DHT22;3777;48.722;8.110;2023-06-14T15:00:38;26.10;40.10
7472;DHT22;3777;48.722;8.110;2023-06-14T15:03:05;26.20;40.60
7472;DHT22;3777;48.722;8.110;2023-06-14T15:05:32;26.30;40.10
7472;DHT22;3777;48.722;8.110;2023-06-14T15:07:59;26.30;40.00
7472;DHT22;3777;48.722;8.110;2023-06-14T15:10:26;26.30;40.60
7472;DHT22;3777;48.722;8.110;2023-06-14T15:12:53;26.20;39.90
7472;DHT22;3777;48.722;8.110;2023-06-14T15:15:21;26.20;39.70
7472;DHT22;3777;48.722;8.110;2023-06-14T15:17:48;26.10;40.50
7472;DHT22;3777;48.722;8.110;2023-06-14T15:20:15;26.20;40.00
7472;DHT22;3777;48.722;8.110;2023-06-14T15:22:42;26.20;40.40
7472;DHT22;3777;48.722;8.110;2023-06-14T15:25:09;26.10;40.60
7472;DHT22;3777;48.722;8.110;2023-06-14T15:27:36;26.20;40.30
7472;DHT22;3777;48.722;8.110;2023-06-14T15:30:03;26.20;40.10
7472;DHT22;3777;48.722;8.110;2023-06-14T15:32:32;26.20;39.70
7472;DHT22;3777;48.722;8.110;2023-06-14T15:34:59;26.20;39.20
7472;DHT22;3777;48.722;8.110;2023-06-14T15:37:26;26.20;40.20
7472;DHT22;3777;48.722;8.110;2023-06-14T15:39:53;26.20;39.40
7472;DHT22;3777;48.722;8.110;2023-06-14T15:42:20;26.20;38.80
7472;DHT22;3777;48.722;8.110;2023-06-14T15:44:47;26.10;38.70
7472;DHT22;3777;48.722;8.110;2023-06-14T15:47:14;26.20;39.30
7472;DHT22;3777;48.722;8.110;2023-06-14T15:49:42;26.10;39.20
7472;DHT22;3777;48.722;8.110;2023-06-14T15:52:09;26.10;38.90
7472;DHT22;3777;48.722;8.110;2023-06-14T15:54:36;26.10;38.60
7472;DHT22;3777;48.722;8.110;2023-06-14T15:57:03;26.00;39.30
7472;DHT22;3777;48.722;8.110;2023-06-14T15:59:31;25.90;39.60
7472;DHT22;3777;48.722;8.110;2023-06-14T16:01:58;25.90;39.00
7472;DHT22;3777;48.722;8.110;2023-06-14T16:04:24;25.80;39.10
7472;DHT22;3777;48.722;8.110;2023-06-14T16:06:53;25.80;39.40
7472;DHT22;3777;48.722;8.110;2023-06-14T16:09:21;25.80;39.10
7472;DHT22;3777;48.722;8.110;2023-06-14T16:11:48;25.80;40.30